sensor_id;sensor_type;location;lat;lon;timestamp;P1;durP1;ratioP1;P2;durP2;ratioP2
70787;SDS011;68385;47.752;19.100;2023-05-23T00:00:21;1.65;;;0.50;;
70787;SDS011;68385;47.752;19.100;2023-05-23T00:03:23;1.65;;;0.50;;
70787;SDS011;68385;47.752;19.100;2023-05-23T00:06:29;1.00;;;0.25;;
70787;SDS011;68385;47.752;19.100;2023-05-23T00:09:31;0.80;;;0.20;;
70787;SDS011;68385;47.752;19.100;2023-05-23T00:12:33;1.50;;;0.30;;
70787;SDS011;68385;47.752;19.100;2023-05-23T00:15:35;0.70;;;0.20;;
70787;SDS011;68385;47.752;19.100;2023-05-23T00:18:39;0.80;;;0.20;;
70787;SDS011;68385;47.752;19.100;2023-05-23T00:21:45;1.62;;;0.30;;
70787;SDS011;68385;47.752;19.100;2023-05-23T00:24:51;3.05;;;0.50;;
70787;SDS011;68385;47.752;19.100;2023-05-23T00:27:53;0.70;;;0.20;;
70787;SDS011;68385;47.752;19.100;2023-05-23T00:30:54;0.70;;;0.20;;
70787;SDS011;68385;47.752;19.100;2023-05-23T00:33:56;0.93;;;0.20;;
70787;SDS011;68385;47.752;19.100;2023-05-23T00:36:58;0.70;;;0.13;;
70787;SDS011;68385;47.752;19.100;2023-05-23T00:40:02;1.67;;;0.30;;
70787;SDS011;68385;47.752;19.100;2023-05-23T00:43:05;0.70;;;0.20;;
70787;SDS011;68385;47.752;19.100;2023-05-23T00:46:09;1.00;;;0.30;;
70787;SDS011;68385;47.752;19.100;2023-05-23T00:49:11;3.28;;;0.57;;
70787;SDS011;68385;47.752;19.100;2023-05-23T00:52:13;0.93;;;0.25;;
70787;SDS011;68385;47.752;19.100;2023-05-23T00:55:15;1.48;;;0.30;;
70787;SDS011;68385;47.752;19.100;2023-05-23T00:58:17;0.73;;;0.20;;
70787;SDS011;68385;47.752;19.100;2023-05-23T01:01:19;0.80;;;0.20;;
70787;SDS011;68385;47.752;19.100;2023-05-23T01:04:21;0.93;;;0.20;;
70787;SDS011;68385;47.752;19.100;2023-05-23T01:07:27;1.67;;;0.93;;
70787;SDS011;68385;47.752;19.100;2023-05-23T01:10:29;0.70;;;0.20;;
70787;SDS011;68385;47.752;19.100;2023-05-23T01:13:41;0.70;;;0.20;;
70787;SDS011;68385;47.752;19.100;2023-05-23T01:16:52;1.17;;;0.30;;
70787;SDS011;68385;47.752;19.100;2023-05-23T01:19:58;6.93;;;0.40;;
70787;SDS011;68385;47.752;19.100;2023-05-23T01:23:24;0.82;;;0.20;;
70787;SDS011;68385;47.752;19.100;2023-05-23T01:30:21;5.30;;;0.40;;
70787;SDS011;68385;47.752;19.100;2023-05-23T01:33:24;1.73;;;0.20;;
70787;SDS011;68385;47.752;19.100;2023-05-23T01:36:26;1.00;;;0.30;;
70787;SDS011;68385;47.752;19.100;2023-05-23T01:39:28;0.80;;;0.20;;
70787;SDS011;68385;47.752;19.100;2023-05-23T01:42:30;0.70;;;0.20;;
70787;SDS011;68385;47.752;19.100;2023-05-23T01:45:31;1.13;;;0.63;;
70787;SDS011;68385;47.752;19.100;2023-05-23T01:48:34;1.37;;;0.40;;
70787;SDS011;68385;47.752;19.100;2023-05-23T01:51:36;0.80;;;0.20;;
70787;SDS011;68385;47.752;19.100;2023-05-23T01:54:39;2.45;;;0.30;;
70787;SDS011;68385;47.752;19.100;2023-05-23T01:57:43;0.77;;;0.20;;
70787;SDS011;68385;47.752;19.100;2023-05-23T02:00:50;1.00;;;0.30;;
70787;SDS011;68385;47.752;19.100;2023-05-23T02:03:52;0.60;;;0.20;;
70787;SDS011;68385;47.752;19.100;2023-05-23T02:06:54;1.00;;;0.35;;
70787;SDS011;68385;47.752;19.100;2023-05-23T02:09:56;1.08;;;0.40;;
70787;SDS011;68385;47.752;19.100;2023-05-23T02:12:57;0.70;;;0.20;;
70787;SDS011;68385;47.752;19.100;2023-05-23T02:15:59;0.70;;;0.20;;
70787;SDS011;68385;47.752;19.100;2023-05-23T02:19:01;0.80;;;0.20;;
70787;SDS011;68385;47.752;19.100;2023-05-23T02:22:04;0.70;;;0.20;;
70787;SDS011;68385;47.752;19.100;2023-05-23T02:25:06;1.00;;;0.30;;
70787;SDS011;68385;47.752;19.100;2023-05-23T02:28:08;2.08;;;0.60;;
70787;SDS011;68385;47.752;19.100;2023-05-23T02:31:12;0.70;;;0.20;;
70787;SDS011;68385;47.752;19.100;2023-05-23T02:34:14;0.70;;;0.20;;
70787;SDS011;68385;47.752;19.100;2023-05-23T02:37:16;0.98;;;0.30;;
70787;SDS011;68385;47.752;19.100;2023-05-23T02:40:17;0.90;;;0.20;;
70787;SDS011;68385;47.752;19.100;2023-05-23T02:43:19;0.82;;;0.20;;
70787;SDS011;68385;47.752;19.100;2023-05-23T02:46:21;0.80;;;0.20;;
70787;SDS011;68385;47.752;19.100;2023-05-23T02:49:23;0.80;;;0.30;;
70787;SDS011;68385;47.752;19.100;2023-05-23T02:52:25;1.65;;;0.52;;
70787;SDS011;68385;47.752;19.100;2023-05-23T02:55:27;0.90;;;0.20;;
70787;SDS011;68385;47.752;19.100;2023-05-23T02:58:29;0.70;;;0.20;;
70787;SDS011;68385;47.752;19.100;2023-05-23T03:01:32;10.10;;;0.57;;
70787;SDS011;68385;47.752;19.100;2023-05-23T03:04:34;2.65;;;0.30;;
70787;SDS011;68385;47.752;19.100;2023-05-23T03:07:35;1.00;;;0.32;;
70787;SDS011;68385;47.752;19.100;2023-05-23T03:10:38;1.00;;;0.30;;
70787;SDS011;68385;47.752;19.100;2023-05-23T03:13:40;0.95;;;0.30;;
70787;SDS011;68385;47.752;19.100;2023-05-23T03:16:42;1.10;;;0.30;;
70787;SDS011;68385;47.752;19.100;2023-05-23T03:19:44;0.93;;;0.20;;
70787;SDS011;68385;47.752;19.100;2023-05-23T03:22:46;1.15;;;0.55;;
70787;SDS011;68385;47.752;19.100;2023-05-23T03:25:48;0.70;;;0.20;;
70787;SDS011;68385;47.752;19.100;2023-05-23T03:28:50;0.80;;;0.30;;
70787;SDS011;68385;47.752;19.100;2023-05-23T03:31:52;1.17;;;0.27;;
70787;SDS011;68385;47.752;19.100;2023-05-23T03:34:54;0.80;;;0.20;;
70787;SDS011;68385;47.752;19.100;2023-05-23T03:37:56;0.88;;;0.20;;
70787;SDS011;68385;47.752;19.100;2023-05-23T03:40:58;1.15;;;0.30;;
70787;SDS011;68385;47.752;19.100;2023-05-23T03:44:00;0.62;;;0.10;;
70787;SDS011;68385;47.752;19.100;2023-05-23T03:47:02;0.80;;;0.23;;
70787;SDS011;68385;47.752;19.100;2023-05-23T03:50:04;0.80;;;0.20;;
70787;SDS011;68385;47.752;19.100;2023-05-23T03:53:06;0.80;;;0.20;;
70787;SDS011;68385;47.752;19.100;2023-05-23T03:56:08;1.35;;;0.30;;
70787;SDS011;68385;47.752;19.100;2023-05-23T03:59:10;1.10;;;0.35;;
70787;SDS011;68385;47.752;19.100;2023-05-23T04:02:12;1.00;;;0.40;;
70787;SDS011;68385;47.752;19.100;2023-05-23T04:05:14;1.37;;;0.37;;
70787;SDS011;68385;47.752;19.100;2023-05-23T04:08:16;0.70;;;0.20;;
70787;SDS011;68385;47.752;19.100;2023-05-23T04:11:22;0.90;;;0.30;;
70787;SDS011;68385;47.752;19.100;2023-05-23T04:14:24;0.73;;;0.20;;
70787;SDS011;68385;47.752;19.100;2023-05-23T04:17:25;0.70;;;0.20;;
70787;SDS011;68385;47.752;19.100;2023-05-23T04:20:29;0.90;;;0.30;;
70787;SDS011;68385;47.752;19.100;2023-05-23T04:23:32;1.20;;;0.40;;
70787;SDS011;68385;47.752;19.100;2023-05-23T04:26:34;0.75;;;0.20;;
70787;SDS011;68385;47.752;19.100;2023-05-23T04:29:36;1.08;;;0.28;;
70787;SDS011;68385;47.752;19.100;2023-05-23T04:32:38;0.80;;;0.20;;
70787;SDS011;68385;47.752;19.100;2023-05-23T04:35:40;0.70;;;0.20;;
70787;SDS011;68385;47.752;19.100;2023-05-23T04:38:42;0.90;;;0.22;;
70787;SDS011;68385;47.752;19.100;2023-05-23T04:41:44;2.42;;;0.45;;
70787;SDS011;68385;47.752;19.100;2023-05-23T04:44:46;0.95;;;0.35;;
70787;SDS011;68385;47.752;19.100;2023-05-23T04:47:50;0.80;;;0.27;;
70787;SDS011;68385;47.752;19.100;2023-05-23T04:50:55;1.23;;;0.45;;
70787;SDS011;68385;47.752;19.100;2023-05-23T04:53:58;1.08;;;0.30;;
70787;SDS011;68385;47.752;19.100;2023-05-23T04:56:59;3.33;;;0.47;;
70787;SDS011;68385;47.752;19.100;2023-05-23T05:00:02;1.10;;;0.20;;
70787;SDS011;68385;47.752;19.100;2023-05-23T05:03:11;3.33;;;0.50;;
70787;SDS011;68385;47.752;19.100;2023-05-23T05:06:13;1.65;;;0.40;;
70787;SDS011;68385;47.752;19.100;2023-05-23T05:09:15;1.15;;;0.32;;
70787;SDS011;68385;47.752;19.100;2023-05-23T05:12:17;1.12;;;0.40;;
70787;SDS011;68385;47.752;19.100;2023-05-23T05:15:18;1.15;;;0.40;;
70787;SDS011;68385;47.752;19.100;2023-05-23T05:18:20;1.77;;;0.57;;
70787;SDS011;68385;47.752;19.100;2023-05-23T05:21:22;1.00;;;0.30;;
70787;SDS011;68385;47.752;19.100;2023-05-23T05:24:24;1.00;;;0.30;;
70787;SDS011;68385;47.752;19.100;2023-05-23T05:27:28;1.25;;;0.40;;
70787;SDS011;68385;47.752;19.100;2023-05-23T05:30:30;0.85;;;0.20;;
70787;SDS011;68385;47.752;19.100;2023-05-23T05:33:36;0.93;;;0.20;;
70787;SDS011;68385;47.752;19.100;2023-05-23T05:36:38;0.80;;;0.20;;
70787;SDS011;68385;47.752;19.100;2023-05-23T05:39:46;1.25;;;0.45;;
70787;SDS011;68385;47.752;19.100;2023-05-23T05:42:48;1.00;;;0.30;;
70787;SDS011;68385;47.752;19.100;2023-05-23T05:45:49;1.00;;;0.30;;
70787;SDS011;68385;47.752;19.100;2023-05-23T05:48:51;1.03;;;0.33;;
70787;SDS011;68385;47.752;19.100;2023-05-23T05:51:53;1.77;;;0.82;;
70787;SDS011;68385;47.752;19.100;2023-05-23T05:54:55;30.75;;;1.10;;
70787;SDS011;68385;47.752;19.100;2023-05-23T05:57:58;1.00;;;0.30;;
70787;SDS011;68385;47.752;19.100;2023-05-23T06:01:00;1.37;;;0.47;;
70787;SDS011;68385;47.752;19.100;2023-05-23T06:04:01;1.30;;;0.30;;
70787;SDS011;68385;47.752;19.100;2023-05-23T06:07:04;1.75;;;0.57;;
70787;SDS011;68385;47.752;19.100;2023-05-23T06:10:06;1.48;;;0.40;;
70787;SDS011;68385;47.752;19.100;2023-05-23T06:13:09;1.15;;;0.43;;
70787;SDS011;68385;47.752;19.100;2023-05-23T06:16:11;1.62;;;0.50;;
70787;SDS011;68385;47.752;19.100;2023-05-23T06:19:13;1.13;;;0.33;;
70787;SDS011;68385;47.752;19.100;2023-05-23T06:22:15;1.10;;;0.30;;
70787;SDS011;68385;47.752;19.100;2023-05-23T06:25:16;2.60;;;0.50;;
70787;SDS011;68385;47.752;19.100;2023-05-23T06:28:19;1.20;;;0.32;;
70787;SDS011;68385;47.752;19.100;2023-05-23T06:31:20;1.20;;;0.40;;
70787;SDS011;68385;47.752;19.100;2023-05-23T06:34:23;1.40;;;0.60;;
70787;SDS011;68385;47.752;19.100;2023-05-23T06:37:24;1.45;;;0.60;;
70787;SDS011;68385;47.752;19.100;2023-05-23T06:40:26;1.50;;;0.40;;
70787;SDS011;68385;47.752;19.100;2023-05-23T06:43:28;1.70;;;0.60;;
70787;SDS011;68385;47.752;19.100;2023-05-23T06:46:30;1.20;;;0.30;;
70787;SDS011;68385;47.752;19.100;2023-05-23T06:49:32;4.60;;;1.17;;
70787;SDS011;68385;47.752;19.100;2023-05-23T06:52:33;3.85;;;0.73;;
70787;SDS011;68385;47.752;19.100;2023-05-23T06:55:35;1.40;;;0.50;;
70787;SDS011;68385;47.752;19.100;2023-05-23T06:58:37;1.27;;;0.45;;
70787;SDS011;68385;47.752;19.100;2023-05-23T07:01:39;1.80;;;0.70;;
70787;SDS011;68385;47.752;19.100;2023-05-23T07:04:41;1.97;;;0.67;;
70787;SDS011;68385;47.752;19.100;2023-05-23T07:07:43;1.23;;;0.40;;
70787;SDS011;68385;47.752;19.100;2023-05-23T07:10:45;1.90;;;0.60;;
70787;SDS011;68385;47.752;19.100;2023-05-23T07:13:47;2.47;;;0.60;;
70787;SDS011;68385;47.752;19.100;2023-05-23T07:16:49;1.77;;;0.60;;
70787;SDS011;68385;47.752;19.100;2023-05-23T07:19:51;2.60;;;0.67;;
70787;SDS011;68385;47.752;19.100;2023-05-23T07:22:53;1.85;;;0.60;;
70787;SDS011;68385;47.752;19.100;2023-05-23T07:25:55;1.75;;;0.55;;
70787;SDS011;68385;47.752;19.100;2023-05-23T07:29:03;2.25;;;0.68;;
70787;SDS011;68385;47.752;19.100;2023-05-23T07:32:05;2.72;;;0.95;;
70787;SDS011;68385;47.752;19.100;2023-05-23T07:35:07;1.57;;;0.53;;
70787;SDS011;68385;47.752;19.100;2023-05-23T07:38:08;1.30;;;0.40;;
70787;SDS011;68385;47.752;19.100;2023-05-23T07:41:11;1.77;;;0.65;;
70787;SDS011;68385;47.752;19.100;2023-05-23T07:44:13;1.23;;;0.40;;
70787;SDS011;68385;47.752;19.100;2023-05-23T07:47:15;2.15;;;0.82;;
70787;SDS011;68385;47.752;19.100;2023-05-23T07:50:16;1.70;;;0.67;;
70787;SDS011;68385;47.752;19.100;2023-05-23T07:53:18;1.98;;;0.65;;
70787;SDS011;68385;47.752;19.100;2023-05-23T07:56:20;1.52;;;0.68;;
70787;SDS011;68385;47.752;19.100;2023-05-23T07:59:23;1.95;;;0.70;;
70787;SDS011;68385;47.752;19.100;2023-05-23T08:02:25;2.12;;;0.90;;
70787;SDS011;68385;47.752;19.100;2023-05-23T08:05:27;1.63;;;0.57;;
70787;SDS011;68385;47.752;19.100;2023-05-23T08:08:29;2.20;;;0.95;;
70787;SDS011;68385;47.752;19.100;2023-05-23T08:11:32;2.17;;;0.80;;
70787;SDS011;68385;47.752;19.100;2023-05-23T08:14:34;1.60;;;0.50;;
70787;SDS011;68385;47.752;19.100;2023-05-23T08:17:52;1.87;;;0.93;;
70787;SDS011;68385;47.752;19.100;2023-05-23T08:20:57;1.40;;;0.40;;
70787;SDS011;68385;47.752;19.100;2023-05-23T08:23:59;1.62;;;0.55;;
70787;SDS011;68385;47.752;19.100;2023-05-23T08:27:01;1.45;;;0.40;;
70787;SDS011;68385;47.752;19.100;2023-05-23T08:30:03;1.40;;;0.40;;
70787;SDS011;68385;47.752;19.100;2023-05-23T08:33:06;1.80;;;0.60;;
70787;SDS011;68385;47.752;19.100;2023-05-23T08:36:09;1.87;;;0.70;;
70787;SDS011;68385;47.752;19.100;2023-05-23T08:39:11;1.50;;;0.50;;
70787;SDS011;68385;47.752;19.100;2023-05-23T08:42:14;4.15;;;0.95;;
70787;SDS011;68385;47.752;19.100;2023-05-23T08:45:16;2.28;;;0.80;;
70787;SDS011;68385;47.752;19.100;2023-05-23T08:48:19;2.53;;;1.23;;
70787;SDS011;68385;47.752;19.100;2023-05-23T08:51:21;1.43;;;0.50;;
70787;SDS011;68385;47.752;19.100;2023-05-23T08:54:25;2.30;;;0.82;;
70787;SDS011;68385;47.752;19.100;2023-05-23T08:57:30;1.55;;;0.60;;
70787;SDS011;68385;47.752;19.100;2023-05-23T09:00:32;1.80;;;0.70;;
70787;SDS011;68385;47.752;19.100;2023-05-23T09:03:34;2.35;;;0.90;;
70787;SDS011;68385;47.752;19.100;2023-05-23T09:06:38;2.63;;;1.00;;
70787;SDS011;68385;47.752;19.100;2023-05-23T09:09:40;2.15;;;1.05;;
70787;SDS011;68385;47.752;19.100;2023-05-23T09:12:42;2.45;;;1.10;;
70787;SDS011;68385;47.752;19.100;2023-05-23T09:16:05;2.05;;;0.55;;
70787;SDS011;68385;47.752;19.100;2023-05-23T09:19:10;2.25;;;0.85;;
70787;SDS011;68385;47.752;19.100;2023-05-23T09:22:13;3.10;;;0.97;;
70787;SDS011;68385;47.752;19.100;2023-05-23T09:25:16;1.70;;;0.82;;
70787;SDS011;68385;47.752;19.100;2023-05-23T09:28:18;1.90;;;0.80;;
70787;SDS011;68385;47.752;19.100;2023-05-23T09:31:20;1.40;;;0.50;;
70787;SDS011;68385;47.752;19.100;2023-05-23T09:34:27;1.80;;;0.85;;
70787;SDS011;68385;47.752;19.100;2023-05-23T09:40:31;1.60;;;0.60;;
70787;SDS011;68385;47.752;19.100;2023-05-23T09:43:34;2.30;;;0.80;;
70787;SDS011;68385;47.752;19.100;2023-05-23T09:46:36;2.22;;;1.02;;
70787;SDS011;68385;47.752;19.100;2023-05-23T09:49:44;1.75;;;0.70;;
70787;SDS011;68385;47.752;19.100;2023-05-23T09:52:47;1.77;;;0.70;;
70787;SDS011;68385;47.752;19.100;2023-05-23T09:55:49;2.47;;;1.33;;
70787;SDS011;68385;47.752;19.100;2023-05-23T09:58:52;2.85;;;1.30;;
70787;SDS011;68385;47.752;19.100;2023-05-23T10:01:55;1.65;;;0.73;;
70787;SDS011;68385;47.752;19.100;2023-05-23T10:04:57;2.25;;;1.10;;
70787;SDS011;68385;47.752;19.100;2023-05-23T10:08:01;2.53;;;1.37;;
70787;SDS011;68385;47.752;19.100;2023-05-23T10:14:14;2.10;;;0.80;;
70787;SDS011;68385;47.752;19.100;2023-05-23T10:17:18;2.67;;;1.02;;
70787;SDS011;68385;47.752;19.100;2023-05-23T10:20:24;2.00;;;1.00;;
70787;SDS011;68385;47.752;19.100;2023-05-23T10:23:27;1.63;;;0.70;;
70787;SDS011;68385;47.752;19.100;2023-05-23T10:26:29;2.53;;;1.30;;
70787;SDS011;68385;47.752;19.100;2023-05-23T10:29:31;1.98;;;0.80;;
70787;SDS011;68385;47.752;19.100;2023-05-23T10:32:34;2.15;;;0.90;;
70787;SDS011;68385;47.752;19.100;2023-05-23T10:35:51;1.98;;;0.85;;
70787;SDS011;68385;47.752;19.100;2023-05-23T10:39:17;1.60;;;0.67;;
70787;SDS011;68385;47.752;19.100;2023-05-23T10:45:43;1.98;;;0.90;;
70787;SDS011;68385;47.752;19.100;2023-05-23T10:48:45;2.85;;;1.00;;
70787;SDS011;68385;47.752;19.100;2023-05-23T10:51:48;4.20;;;1.10;;
70787;SDS011;68385;47.752;19.100;2023-05-23T10:54:52;2.00;;;1.00;;
70787;SDS011;68385;47.752;19.100;2023-05-23T11:01:23;2.25;;;1.08;;
70787;SDS011;68385;47.752;19.100;2023-05-23T11:04:26;1.80;;;0.80;;
70787;SDS011;68385;47.752;19.100;2023-05-23T11:07:31;3.42;;;1.20;;
70787;SDS011;68385;47.752;19.100;2023-05-23T11:13:55;1.90;;;0.70;;
70787;SDS011;68385;47.752;19.100;2023-05-23T11:20:19;2.30;;;1.08;;
70787;SDS011;68385;47.752;19.100;2023-05-23T11:23:23;5.12;;;0.90;;
70787;SDS011;68385;47.752;19.100;2023-05-23T11:26:40;1.90;;;0.73;;
70787;SDS011;68385;47.752;19.100;2023-05-23T11:33:13;1.75;;;0.75;;
70787;SDS011;68385;47.752;19.100;2023-05-23T11:36:16;2.00;;;1.12;;
70787;SDS011;68385;47.752;19.100;2023-05-23T11:39:18;2.03;;;1.15;;
70787;SDS011;68385;47.752;19.100;2023-05-23T11:42:22;2.10;;;1.30;;
70787;SDS011;68385;47.752;19.100;2023-05-23T11:45:25;2.03;;;0.98;;
70787;SDS011;68385;47.752;19.100;2023-05-23T11:48:29;3.50;;;1.58;;
70787;SDS011;68385;47.752;19.100;2023-05-23T11:51:31;5.20;;;1.45;;
70787;SDS011;68385;47.752;19.100;2023-05-23T11:54:33;1.80;;;0.95;;
70787;SDS011;68385;47.752;19.100;2023-05-23T11:57:38;1.80;;;0.90;;
70787;SDS011;68385;47.752;19.100;2023-05-23T12:00:43;2.00;;;1.00;;
70787;SDS011;68385;47.752;19.100;2023-05-23T12:03:46;2.60;;;1.00;;
70787;SDS011;68385;47.752;19.100;2023-05-23T12:06:50;1.83;;;0.80;;
70787;SDS011;68385;47.752;19.100;2023-05-23T12:09:54;2.10;;;1.20;;
70787;SDS011;68385;47.752;19.100;2023-05-23T12:12:57;2.30;;;1.13;;
70787;SDS011;68385;47.752;19.100;2023-05-23T12:15:59;2.00;;;0.80;;
70787;SDS011;68385;47.752;19.100;2023-05-23T12:19:03;2.22;;;1.27;;
70787;SDS011;68385;47.752;19.100;2023-05-23T12:22:06;2.37;;;1.25;;
70787;SDS011;68385;47.752;19.100;2023-05-23T12:25:08;2.22;;;1.35;;
70787;SDS011;68385;47.752;19.100;2023-05-23T12:28:13;1.93;;;0.77;;
70787;SDS011;68385;47.752;19.100;2023-05-23T12:31:17;2.10;;;1.12;;
70787;SDS011;68385;47.752;19.100;2023-05-23T12:34:19;1.85;;;0.93;;
70787;SDS011;68385;47.752;19.100;2023-05-23T12:37:22;1.90;;;1.00;;
70787;SDS011;68385;47.752;19.100;2023-05-23T12:40:24;3.28;;;1.37;;
70787;SDS011;68385;47.752;19.100;2023-05-23T12:43:26;1.83;;;0.73;;
70787;SDS011;68385;47.752;19.100;2023-05-23T12:46:28;1.67;;;0.77;;
70787;SDS011;68385;47.752;19.100;2023-05-23T12:49:30;2.10;;;1.10;;
70787;SDS011;68385;47.752;19.100;2023-05-23T12:52:32;2.12;;;0.95;;
70787;SDS011;68385;47.752;19.100;2023-05-23T12:55:36;2.00;;;0.95;;
70787;SDS011;68385;47.752;19.100;2023-05-23T12:58:39;2.63;;;1.70;;
70787;SDS011;68385;47.752;19.100;2023-05-23T13:01:40;2.58;;;1.20;;
70787;SDS011;68385;47.752;19.100;2023-05-23T13:04:43;2.03;;;0.93;;
70787;SDS011;68385;47.752;19.100;2023-05-23T13:07:44;2.67;;;1.00;;
70787;SDS011;68385;47.752;19.100;2023-05-23T13:10:46;2.20;;;1.05;;
70787;SDS011;68385;47.752;19.100;2023-05-23T13:13:49;1.50;;;0.63;;
70787;SDS011;68385;47.752;19.100;2023-05-23T13:16:51;1.92;;;0.80;;
70787;SDS011;68385;47.752;19.100;2023-05-23T13:19:53;2.35;;;1.20;;
70787;SDS011;68385;47.752;19.100;2023-05-23T13:22:55;3.22;;;2.92;;
70787;SDS011;68385;47.752;19.100;2023-05-23T13:26:01;1.85;;;0.70;;
70787;SDS011;68385;47.752;19.100;2023-05-23T13:29:03;2.03;;;0.90;;
70787;SDS011;68385;47.752;19.100;2023-05-23T13:32:07;1.85;;;0.90;;
70787;SDS011;68385;47.752;19.100;2023-05-23T13:35:08;1.75;;;0.75;;
70787;SDS011;68385;47.752;19.100;2023-05-23T13:38:10;1.80;;;0.90;;
70787;SDS011;68385;47.752;19.100;2023-05-23T13:41:13;2.45;;;1.60;;
70787;SDS011;68385;47.752;19.100;2023-05-23T13:44:15;1.77;;;0.80;;
70787;SDS011;68385;47.752;19.100;2023-05-23T13:47:17;2.83;;;1.40;;
70787;SDS011;68385;47.752;19.100;2023-05-23T13:50:19;2.62;;;1.65;;
70787;SDS011;68385;47.752;19.100;2023-05-23T13:53:21;1.90;;;0.80;;
70787;SDS011;68385;47.752;19.100;2023-05-23T13:56:23;1.90;;;0.85;;
70787;SDS011;68385;47.752;19.100;2023-05-23T13:59:25;1.90;;;0.93;;
70787;SDS011;68385;47.752;19.100;2023-05-23T14:02:27;1.98;;;0.80;;
70787;SDS011;68385;47.752;19.100;2023-05-23T14:05:30;3.78;;;1.55;;
70787;SDS011;68385;47.752;19.100;2023-05-23T14:08:32;3.03;;;0.90;;
70787;SDS011;68385;47.752;19.100;2023-05-23T14:11:35;2.47;;;1.05;;
70787;SDS011;68385;47.752;19.100;2023-05-23T14:14:36;1.40;;;0.50;;
70787;SDS011;68385;47.752;19.100;2023-05-23T14:17:38;1.87;;;0.60;;
70787;SDS011;68385;47.752;19.100;2023-05-23T14:20:40;2.50;;;0.95;;
70787;SDS011;68385;47.752;19.100;2023-05-23T14:23:42;1.92;;;0.80;;
70787;SDS011;68385;47.752;19.100;2023-05-23T14:26:44;1.90;;;0.88;;
70787;SDS011;68385;47.752;19.100;2023-05-23T14:29:47;1.70;;;0.67;;
70787;SDS011;68385;47.752;19.100;2023-05-23T14:32:50;3.22;;;1.17;;
70787;SDS011;68385;47.752;19.100;2023-05-23T14:35:52;1.73;;;0.73;;
70787;SDS011;68385;47.752;19.100;2023-05-23T14:38:53;1.65;;;0.73;;
70787;SDS011;68385;47.752;19.100;2023-05-23T14:41:55;1.80;;;0.80;;
70787;SDS011;68385;47.752;19.100;2023-05-23T14:44:57;1.70;;;0.70;;
70787;SDS011;68385;47.752;19.100;2023-05-23T14:47:59;2.37;;;1.00;;
70787;SDS011;68385;47.752;19.100;2023-05-23T14:51:01;1.67;;;0.70;;
70787;SDS011;68385;47.752;19.100;2023-05-23T14:54:03;2.45;;;1.10;;
70787;SDS011;68385;47.752;19.100;2023-05-23T14:57:05;2.42;;;0.98;;
70787;SDS011;68385;47.752;19.100;2023-05-23T15:00:09;1.53;;;0.50;;
70787;SDS011;68385;47.752;19.100;2023-05-23T15:03:12;2.08;;;0.80;;
70787;SDS011;68385;47.752;19.100;2023-05-23T15:06:15;1.50;;;0.50;;
70787;SDS011;68385;47.752;19.100;2023-05-23T15:09:16;1.65;;;0.77;;
70787;SDS011;68385;47.752;19.100;2023-05-23T15:12:18;1.60;;;0.70;;
70787;SDS011;68385;47.752;19.100;2023-05-23T15:15:21;1.70;;;0.80;;
70787;SDS011;68385;47.752;19.100;2023-05-23T15:18:24;2.45;;;0.98;;
70787;SDS011;68385;47.752;19.100;2023-05-23T15:21:40;2.40;;;0.75;;
70787;SDS011;68385;47.752;19.100;2023-05-23T15:24:51;2.00;;;1.02;;
70787;SDS011;68385;47.752;19.100;2023-05-23T15:27:53;2.30;;;0.90;;
70787;SDS011;68385;47.752;19.100;2023-05-23T15:30:56;1.60;;;0.70;;
70787;SDS011;68385;47.752;19.100;2023-05-23T15:33:59;1.37;;;0.50;;
70787;SDS011;68385;47.752;19.100;2023-05-23T15:37:01;1.60;;;0.65;;
70787;SDS011;68385;47.752;19.100;2023-05-23T15:40:03;2.45;;;1.00;;
70787;SDS011;68385;47.752;19.100;2023-05-23T15:43:05;1.92;;;0.75;;
70787;SDS011;68385;47.752;19.100;2023-05-23T15:46:07;2.13;;;1.00;;
70787;SDS011;68385;47.752;19.100;2023-05-23T15:49:09;1.52;;;0.60;;
70787;SDS011;68385;47.752;19.100;2023-05-23T15:52:26;1.60;;;0.60;;
70787;SDS011;68385;47.752;19.100;2023-05-23T15:55:29;2.37;;;0.90;;
70787;SDS011;68385;47.752;19.100;2023-05-23T15:58:31;2.72;;;1.17;;
70787;SDS011;68385;47.752;19.100;2023-05-23T16:01:33;6.97;;;0.70;;
70787;SDS011;68385;47.752;19.100;2023-05-23T16:04:35;2.33;;;0.93;;
70787;SDS011;68385;47.752;19.100;2023-05-23T16:07:37;1.77;;;0.60;;
70787;SDS011;68385;47.752;19.100;2023-05-23T16:10:39;1.55;;;0.62;;
70787;SDS011;68385;47.752;19.100;2023-05-23T16:13:41;1.75;;;0.73;;
70787;SDS011;68385;47.752;19.100;2023-05-23T16:16:43;1.33;;;0.40;;
70787;SDS011;68385;47.752;19.100;2023-05-23T16:19:45;1.55;;;0.60;;
70787;SDS011;68385;47.752;19.100;2023-05-23T16:22:46;2.00;;;0.88;;
70787;SDS011;68385;47.752;19.100;2023-05-23T16:25:48;1.60;;;0.50;;
70787;SDS011;68385;47.752;19.100;2023-05-23T16:28:50;1.33;;;0.37;;
70787;SDS011;68385;47.752;19.100;2023-05-23T16:31:52;1.20;;;0.30;;
70787;SDS011;68385;47.752;19.100;2023-05-23T16:34:54;1.75;;;0.70;;
70787;SDS011;68385;47.752;19.100;2023-05-23T16:37:56;1.83;;;0.85;;
70787;SDS011;68385;47.752;19.100;2023-05-23T16:40:58;1.30;;;0.40;;
70787;SDS011;68385;47.752;19.100;2023-05-23T16:43:59;1.37;;;0.40;;
70787;SDS011;68385;47.752;19.100;2023-05-23T16:47:01;1.23;;;0.40;;
70787;SDS011;68385;47.752;19.100;2023-05-23T16:50:03;2.17;;;0.68;;
70787;SDS011;68385;47.752;19.100;2023-05-23T16:53:06;2.45;;;0.80;;
70787;SDS011;68385;47.752;19.100;2023-05-23T16:56:08;1.40;;;0.47;;
70787;SDS011;68385;47.752;19.100;2023-05-23T16:59:10;1.98;;;0.88;;
70787;SDS011;68385;47.752;19.100;2023-05-23T17:02:15;1.13;;;0.40;;
70787;SDS011;68385;47.752;19.100;2023-05-23T17:05:17;1.50;;;0.68;;
70787;SDS011;68385;47.752;19.100;2023-05-23T17:08:19;1.67;;;0.75;;
70787;SDS011;68385;47.752;19.100;2023-05-23T17:11:21;1.52;;;0.50;;
70787;SDS011;68385;47.752;19.100;2023-05-23T17:14:23;1.55;;;0.40;;
70787;SDS011;68385;47.752;19.100;2023-05-23T17:17:25;1.43;;;0.53;;
70787;SDS011;68385;47.752;19.100;2023-05-23T17:20:26;3.10;;;1.08;;
70787;SDS011;68385;47.752;19.100;2023-05-23T17:23:29;2.33;;;0.60;;
70787;SDS011;68385;47.752;19.100;2023-05-23T17:26:30;1.55;;;0.43;;
70787;SDS011;68385;47.752;19.100;2023-05-23T17:29:33;1.52;;;0.40;;
70787;SDS011;68385;47.752;19.100;2023-05-23T17:32:34;1.27;;;0.33;;
70787;SDS011;68385;47.752;19.100;2023-05-23T17:35:36;2.33;;;0.95;;
70787;SDS011;68385;47.752;19.100;2023-05-23T17:38:38;1.30;;;0.40;;
70787;SDS011;68385;47.752;19.100;2023-05-23T17:41:40;3.12;;;0.90;;
70787;SDS011;68385;47.752;19.100;2023-05-23T17:44:43;1.00;;;0.30;;
70787;SDS011;68385;47.752;19.100;2023-05-23T17:47:45;2.00;;;0.60;;
70787;SDS011;68385;47.752;19.100;2023-05-23T17:50:47;2.28;;;0.82;;
70787;SDS011;68385;47.752;19.100;2023-05-23T17:53:49;1.70;;;0.40;;
70787;SDS011;68385;47.752;19.100;2023-05-23T17:56:54;1.52;;;0.75;;
70787;SDS011;68385;47.752;19.100;2023-05-23T17:59:56;1.60;;;0.40;;
70787;SDS011;68385;47.752;19.100;2023-05-23T18:02:59;0.90;;;0.30;;
70787;SDS011;68385;47.752;19.100;2023-05-23T18:06:01;1.10;;;0.30;;
70787;SDS011;68385;47.752;19.100;2023-05-23T18:09:03;1.15;;;0.32;;
70787;SDS011;68385;47.752;19.100;2023-05-23T18:12:05;1.62;;;0.62;;
70787;SDS011;68385;47.752;19.100;2023-05-23T18:15:08;1.12;;;0.37;;
70787;SDS011;68385;47.752;19.100;2023-05-23T18:18:10;1.47;;;0.63;;
70787;SDS011;68385;47.752;19.100;2023-05-23T18:21:12;1.10;;;0.30;;
70787;SDS011;68385;47.752;19.100;2023-05-23T18:24:16;1.60;;;0.47;;
70787;SDS011;68385;47.752;19.100;2023-05-23T18:27:17;1.25;;;0.40;;
70787;SDS011;68385;47.752;19.100;2023-05-23T18:30:19;1.33;;;0.40;;